sensor_id;sensor_type;location;lat;lon;timestamp;P1;durP1;ratioP1;P2;durP2;ratioP2
64550;SDS011;50945;44.472;-123.352;2023-03-23T00:01:59;5.07;;;2.90;;
64550;SDS011;50945;44.472;-123.352;2023-03-23T00:04:25;10.38;;;3.25;;
64550;SDS011;50945;44.472;-123.352;2023-03-23T00:06:54;5.25;;;3.00;;
64550;SDS011;50945;44.472;-123.352;2023-03-23T00:09:20;9.88;;;3.15;;
64550;SDS011;50945;44.472;-123.352;2023-03-23T00:11:49;4.22;;;2.67;;
64550;SDS011;50945;44.472;-123.352;2023-03-23T00:14:16;5.53;;;2.70;;
64550;SDS011;50945;44.472;-123.352;2023-03-23T00:16:47;5.43;;;3.03;;
64550;SDS011;50945;44.472;-123.352;2023-03-23T00:19:15;8.20;;;2.95;;
64550;SDS011;50945;44.472;-123.352;2023-03-23T00:21:44;8.13;;;3.45;;
64550;SDS011;50945;44.472;-123.352;2023-03-23T00:24:12;7.10;;;3.08;;
64550;SDS011;50945;44.472;-123.352;2023-03-23T00:26:42;7.07;;;3.50;;
64550;SDS011;50945;44.472;-123.352;2023-03-23T00:29:17;6.32;;;3.42;;
64550;SDS011;50945;44.472;-123.352;2023-03-23T00:31:49;7.80;;;2.85;;
64550;SDS011;50945;44.472;-123.352;2023-03-23T00:34:18;7.55;;;3.65;;
64550;SDS011;50945;44.472;-123.352;2023-03-23T00:36:46;7.40;;;3.33;;
64550;SDS011;50945;44.472;-123.352;2023-03-23T00:39:13;2.67;;;2.47;;
64550;SDS011;50945;44.472;-123.352;2023-03-23T00:41:43;5.60;;;3.13;;
64550;SDS011;50945;44.472;-123.352;2023-03-23T00:44:10;6.03;;;2.60;;
64550;SDS011;50945;44.472;-123.352;2023-03-23T00:46:44;2.80;;;2.15;;
64550;SDS011;50945;44.472;-123.352;2023-03-23T00:49:14;3.72;;;2.40;;
64550;SDS011;50945;44.472;-123.352;2023-03-23T00:51:42;7.30;;;2.22;;
64550;SDS011;50945;44.472;-123.352;2023-03-23T00:54:10;3.38;;;2.53;;
64550;SDS011;50945;44.472;-123.352;2023-03-23T00:59:04;4.93;;;2.20;;
64550;SDS011;50945;44.472;-123.352;2023-03-23T01:01:31;3.92;;;2.15;;
64550;SDS011;50945;44.472;-123.352;2023-03-23T01:04:00;3.63;;;1.67;;
64550;SDS011;50945;44.472;-123.352;2023-03-23T01:06:33;4.90;;;2.10;;
64550;SDS011;50945;44.472;-123.352;2023-03-23T01:09:06;4.32;;;1.90;;
64550;SDS011;50945;44.472;-123.352;2023-03-23T01:11:34;2.90;;;2.10;;
64550;SDS011;50945;44.472;-123.352;2023-03-23T01:14:04;2.05;;;1.55;;
64550;SDS011;50945;44.472;-123.352;2023-03-23T01:16:30;2.72;;;1.90;;
64550;SDS011;50945;44.472;-123.352;2023-03-23T01:18:57;1.80;;;1.55;;
64550;SDS011;50945;44.472;-123.352;2023-03-23T01:21:27;3.63;;;1.48;;
64550;SDS011;50945;44.472;-123.352;2023-03-23T01:23:53;2.65;;;1.73;;
64550;SDS011;50945;44.472;-123.352;2023-03-23T01:26:21;1.65;;;1.48;;
64550;SDS011;50945;44.472;-123.352;2023-03-23T01:28:49;1.48;;;1.20;;
64550;SDS011;50945;44.472;-123.352;2023-03-23T01:31:16;3.13;;;1.70;;
64550;SDS011;50945;44.472;-123.352;2023-03-23T01:33:52;1.63;;;1.45;;
64550;SDS011;50945;44.472;-123.352;2023-03-23T01:36:21;1.52;;;1.00;;
64550;SDS011;50945;44.472;-123.352;2023-03-23T01:41:20;2.00;;;0.98;;
64550;SDS011;50945;44.472;-123.352;2023-03-23T01:44:00;1.42;;;1.33;;
64550;SDS011;50945;44.472;-123.352;2023-03-23T01:46:32;1.48;;;1.25;;
64550;SDS011;50945;44.472;-123.352;2023-03-23T01:49:06;1.88;;;1.40;;
64550;SDS011;50945;44.472;-123.352;2023-03-23T01:51:37;1.13;;;0.82;;
64550;SDS011;50945;44.472;-123.352;2023-03-23T01:54:18;1.52;;;0.90;;
64550;SDS011;50945;44.472;-123.352;2023-03-23T01:57:09;1.48;;;1.00;;
64550;SDS011;50945;44.472;-123.352;2023-03-23T01:59:37;1.30;;;1.15;;
64550;SDS011;50945;44.472;-123.352;2023-03-23T02:02:03;0.80;;;0.80;;
64550;SDS011;50945;44.472;-123.352;2023-03-23T02:04:33;3.35;;;1.33;;
64550;SDS011;50945;44.472;-123.352;2023-03-23T02:07:00;2.03;;;1.00;;
64550;SDS011;50945;44.472;-123.352;2023-03-23T02:09:27;1.65;;;1.05;;
64550;SDS011;50945;44.472;-123.352;2023-03-23T02:11:53;1.17;;;0.55;;
64550;SDS011;50945;44.472;-123.352;2023-03-23T02:19:39;1.60;;;0.90;;
64550;SDS011;50945;44.472;-123.352;2023-03-23T02:30:49;0.93;;;0.90;;
64550;SDS011;50945;44.472;-123.352;2023-03-23T02:41:58;0.70;;;0.40;;
64550;SDS011;50945;44.472;-123.352;2023-03-23T02:44:30;2.15;;;0.70;;
64550;SDS011;50945;44.472;-123.352;2023-03-23T02:46:58;0.80;;;0.57;;
64550;SDS011;50945;44.472;-123.352;2023-03-23T02:49:29;2.28;;;0.68;;
64550;SDS011;50945;44.472;-123.352;2023-03-23T02:52:02;0.70;;;0.70;;
64550;SDS011;50945;44.472;-123.352;2023-03-23T02:54:32;0.68;;;0.68;;
64550;SDS011;50945;44.472;-123.352;2023-03-23T02:57:00;0.90;;;0.90;;
64550;SDS011;50945;44.472;-123.352;2023-03-23T02:59:28;0.50;;;0.47;;
64550;SDS011;50945;44.472;-123.352;2023-03-23T03:01:58;0.63;;;0.60;;
64550;SDS011;50945;44.472;-123.352;2023-03-23T03:04:30;0.70;;;0.70;;
64550;SDS011;50945;44.472;-123.352;2023-03-23T03:12:08;0.57;;;0.47;;
64550;SDS011;50945;44.472;-123.352;2023-03-23T03:15:09;0.55;;;0.55;;
64550;SDS011;50945;44.472;-123.352;2023-03-23T03:17:50;0.45;;;0.40;;
64550;SDS011;50945;44.472;-123.352;2023-03-23T03:20:25;1.17;;;0.70;;
64550;SDS011;50945;44.472;-123.352;2023-03-23T03:22:53;1.20;;;0.70;;
64550;SDS011;50945;44.472;-123.352;2023-03-23T03:25:24;0.77;;;0.77;;
64550;SDS011;50945;44.472;-123.352;2023-03-23T03:27:52;1.63;;;0.70;;
64550;SDS011;50945;44.472;-123.352;2023-03-23T03:30:21;1.60;;;0.75;;
64550;SDS011;50945;44.472;-123.352;2023-03-23T03:32:55;1.17;;;0.60;;
64550;SDS011;50945;44.472;-123.352;2023-03-23T03:35:25;0.20;;;0.20;;
64550;SDS011;50945;44.472;-123.352;2023-03-23T03:40:20;2.25;;;0.40;;
64550;SDS011;50945;44.472;-123.352;2023-03-23T03:42:47;0.55;;;0.30;;
64550;SDS011;50945;44.472;-123.352;2023-03-23T03:45:15;0.55;;;0.55;;
64550;SDS011;50945;44.472;-123.352;2023-03-23T03:47:43;0.45;;;0.40;;
64550;SDS011;50945;44.472;-123.352;2023-03-23T03:50:11;0.82;;;0.50;;
64550;SDS011;50945;44.472;-123.352;2023-03-23T03:52:37;0.43;;;0.43;;
64550;SDS011;50945;44.472;-123.352;2023-03-23T03:55:06;0.50;;;0.50;;
64550;SDS011;50945;44.472;-123.352;2023-03-23T03:57:33;0.50;;;0.50;;
64550;SDS011;50945;44.472;-123.352;2023-03-23T04:00:00;0.47;;;0.47;;
64550;SDS011;50945;44.472;-123.352;2023-03-23T04:02:37;0.40;;;0.40;;
64550;SDS011;50945;44.472;-123.352;2023-03-23T04:05:03;0.45;;;0.45;;
64550;SDS011;50945;44.472;-123.352;2023-03-23T04:07:29;0.40;;;0.40;;
64550;SDS011;50945;44.472;-123.352;2023-03-23T04:09:56;0.70;;;0.50;;
64550;SDS011;50945;44.472;-123.352;2023-03-23T04:12:22;0.43;;;0.43;;
64550;SDS011;50945;44.472;-123.352;2023-03-23T04:14:48;0.57;;;0.38;;
64550;SDS011;50945;44.472;-123.352;2023-03-23T04:17:14;2.72;;;0.70;;
64550;SDS011;50945;44.472;-123.352;2023-03-23T04:19:42;1.00;;;0.90;;
64550;SDS011;50945;44.472;-123.352;2023-03-23T04:22:10;1.20;;;0.40;;
64550;SDS011;50945;44.472;-123.352;2023-03-23T04:24:37;1.08;;;0.80;;
64550;SDS011;50945;44.472;-123.352;2023-03-23T04:27:03;1.27;;;0.43;;
64550;SDS011;50945;44.472;-123.352;2023-03-23T04:29:30;0.30;;;0.30;;
64550;SDS011;50945;44.472;-123.352;2023-03-23T04:31:59;0.22;;;0.22;;
64550;SDS011;50945;44.472;-123.352;2023-03-23T04:34:27;0.15;;;0.15;;
64550;SDS011;50945;44.472;-123.352;2023-03-23T04:36:53;0.47;;;0.47;;
64550;SDS011;50945;44.472;-123.352;2023-03-23T04:39:21;1.17;;;0.47;;
64550;SDS011;50945;44.472;-123.352;2023-03-23T04:41:49;0.30;;;0.10;;
64550;SDS011;50945;44.472;-123.352;2023-03-23T04:44:16;1.17;;;0.45;;
64550;SDS011;50945;44.472;-123.352;2023-03-23T04:46:46;1.08;;;0.40;;
64550;SDS011;50945;44.472;-123.352;2023-03-23T04:49:15;0.28;;;0.20;;
64550;SDS011;50945;44.472;-123.352;2023-03-23T04:51:46;1.10;;;0.30;;
64550;SDS011;50945;44.472;-123.352;2023-03-23T04:54:13;0.35;;;0.35;;
64550;SDS011;50945;44.472;-123.352;2023-03-23T04:56:40;0.63;;;0.40;;
64550;SDS011;50945;44.472;-123.352;2023-03-23T04:59:06;0.30;;;0.30;;
64550;SDS011;50945;44.472;-123.352;2023-03-23T05:01:33;1.00;;;0.15;;
64550;SDS011;50945;44.472;-123.352;2023-03-23T05:04:02;2.58;;;0.38;;
64550;SDS011;50945;44.472;-123.352;2023-03-23T05:06:29;0.32;;;0.32;;
64550;SDS011;50945;44.472;-123.352;2023-03-23T05:08:56;2.33;;;0.38;;
64550;SDS011;50945;44.472;-123.352;2023-03-23T05:11:22;0.95;;;0.28;;
64550;SDS011;50945;44.472;-123.352;2023-03-23T05:13:48;0.90;;;0.52;;
64550;SDS011;50945;44.472;-123.352;2023-03-23T05:16:15;0.30;;;0.30;;
64550;SDS011;50945;44.472;-123.352;2023-03-23T05:18:42;0.57;;;0.38;;
64550;SDS011;50945;44.472;-123.352;2023-03-23T05:21:10;0.65;;;0.65;;
64550;SDS011;50945;44.472;-123.352;2023-03-23T05:23:36;0.30;;;0.30;;
64550;SDS011;50945;44.472;-123.352;2023-03-23T05:26:02;0.93;;;0.70;;
64550;SDS011;50945;44.472;-123.352;2023-03-23T05:28:29;1.75;;;0.50;;
64550;SDS011;50945;44.472;-123.352;2023-03-23T05:30:58;2.08;;;0.88;;
64550;SDS011;50945;44.472;-123.352;2023-03-23T05:33:24;2.05;;;0.80;;
64550;SDS011;50945;44.472;-123.352;2023-03-23T05:35:50;0.63;;;0.47;;
64550;SDS011;50945;44.472;-123.352;2023-03-23T05:38:17;3.00;;;0.90;;
64550;SDS011;50945;44.472;-123.352;2023-03-23T05:40:43;1.52;;;0.88;;
64550;SDS011;50945;44.472;-123.352;2023-03-23T05:43:09;1.33;;;0.80;;
64550;SDS011;50945;44.472;-123.352;2023-03-23T05:45:36;2.30;;;1.25;;
64550;SDS011;50945;44.472;-123.352;2023-03-23T05:48:03;1.23;;;0.90;;
64550;SDS011;50945;44.472;-123.352;2023-03-23T05:50:30;6.70;;;1.63;;
64550;SDS011;50945;44.472;-123.352;2023-03-23T05:52:56;1.77;;;1.08;;
64550;SDS011;50945;44.472;-123.352;2023-03-23T05:55:23;1.15;;;1.08;;
64550;SDS011;50945;44.472;-123.352;2023-03-23T05:57:50;5.00;;;1.42;;
64550;SDS011;50945;44.472;-123.352;2023-03-23T06:00:16;3.30;;;1.58;;
64550;SDS011;50945;44.472;-123.352;2023-03-23T06:02:48;3.15;;;1.20;;
64550;SDS011;50945;44.472;-123.352;2023-03-23T06:05:16;1.20;;;0.98;;
64550;SDS011;50945;44.472;-123.352;2023-03-23T06:07:42;2.65;;;1.50;;
64550;SDS011;50945;44.472;-123.352;2023-03-23T06:10:09;3.65;;;1.23;;
64550;SDS011;50945;44.472;-123.352;2023-03-23T06:12:37;2.75;;;1.15;;
64550;SDS011;50945;44.472;-123.352;2023-03-23T06:15:04;2.67;;;1.27;;
64550;SDS011;50945;44.472;-123.352;2023-03-23T06:17:32;3.42;;;1.10;;
64550;SDS011;50945;44.472;-123.352;2023-03-23T06:19:59;1.23;;;0.82;;
64550;SDS011;50945;44.472;-123.352;2023-03-23T06:22:25;1.73;;;0.65;;
64550;SDS011;50945;44.472;-123.352;2023-03-23T06:24:52;2.30;;;1.13;;
64550;SDS011;50945;44.472;-123.352;2023-03-23T06:27:18;1.33;;;0.70;;
64550;SDS011;50945;44.472;-123.352;2023-03-23T06:29:46;5.40;;;1.30;;
64550;SDS011;50945;44.472;-123.352;2023-03-23T06:32:13;2.10;;;0.88;;
64550;SDS011;50945;44.472;-123.352;2023-03-23T06:34:40;1.75;;;0.70;;
64550;SDS011;50945;44.472;-123.352;2023-03-23T06:37:10;1.13;;;0.85;;
64550;SDS011;50945;44.472;-123.352;2023-03-23T06:39:37;4.10;;;0.80;;
64550;SDS011;50945;44.472;-123.352;2023-03-23T06:42:03;2.42;;;1.17;;
64550;SDS011;50945;44.472;-123.352;2023-03-23T06:44:30;2.08;;;1.25;;
64550;SDS011;50945;44.472;-123.352;2023-03-23T06:46:57;1.45;;;1.23;;
64550;SDS011;50945;44.472;-123.352;2023-03-23T06:49:23;1.60;;;1.35;;
64550;SDS011;50945;44.472;-123.352;2023-03-23T06:51:49;2.45;;;1.08;;
64550;SDS011;50945;44.472;-123.352;2023-03-23T06:54:16;2.40;;;1.15;;
64550;SDS011;50945;44.472;-123.352;2023-03-23T06:56:42;1.48;;;1.08;;
64550;SDS011;50945;44.472;-123.352;2023-03-23T06:59:08;3.47;;;1.30;;
64550;SDS011;50945;44.472;-123.352;2023-03-23T07:04:01;0.70;;;0.70;;
64550;SDS011;50945;44.472;-123.352;2023-03-23T07:06:28;3.80;;;1.30;;
64550;SDS011;50945;44.472;-123.352;2023-03-23T07:08:54;3.38;;;0.95;;
64550;SDS011;50945;44.472;-123.352;2023-03-23T07:11:20;6.53;;;1.88;;
64550;SDS011;50945;44.472;-123.352;2023-03-23T07:13:46;2.65;;;1.42;;
64550;SDS011;50945;44.472;-123.352;2023-03-23T07:16:18;4.78;;;1.45;;
64550;SDS011;50945;44.472;-123.352;2023-03-23T07:18:44;4.30;;;1.63;;
64550;SDS011;50945;44.472;-123.352;2023-03-23T07:21:10;2.58;;;1.40;;
64550;SDS011;50945;44.472;-123.352;2023-03-23T07:23:36;5.10;;;1.42;;
64550;SDS011;50945;44.472;-123.352;2023-03-23T07:26:03;4.13;;;1.60;;
64550;SDS011;50945;44.472;-123.352;2023-03-23T07:28:29;1.58;;;1.20;;
64550;SDS011;50945;44.472;-123.352;2023-03-23T07:30:56;2.15;;;0.98;;
64550;SDS011;50945;44.472;-123.352;2023-03-23T07:33:22;3.28;;;1.08;;
64550;SDS011;50945;44.472;-123.352;2023-03-23T07:35:48;5.47;;;1.45;;
64550;SDS011;50945;44.472;-123.352;2023-03-23T07:38:15;4.20;;;1.08;;
64550;SDS011;50945;44.472;-123.352;2023-03-23T07:40:41;2.42;;;0.95;;
64550;SDS011;50945;44.472;-123.352;2023-03-23T07:43:07;2.10;;;1.08;;
64550;SDS011;50945;44.472;-123.352;2023-03-23T07:45:34;1.92;;;1.15;;
64550;SDS011;50945;44.472;-123.352;2023-03-23T07:48:00;2.20;;;1.25;;
64550;SDS011;50945;44.472;-123.352;2023-03-23T07:50:26;1.30;;;1.20;;
64550;SDS011;50945;44.472;-123.352;2023-03-23T07:52:54;3.17;;;1.05;;
64550;SDS011;50945;44.472;-123.352;2023-03-23T07:55:23;1.80;;;1.00;;
64550;SDS011;50945;44.472;-123.352;2023-03-23T07:57:50;2.60;;;0.98;;
64550;SDS011;50945;44.472;-123.352;2023-03-23T08:00:18;3.95;;;1.35;;
64550;SDS011;50945;44.472;-123.352;2023-03-23T08:02:55;5.60;;;1.10;;
64550;SDS011;50945;44.472;-123.352;2023-03-23T08:05:23;2.15;;;1.13;;
64550;SDS011;50945;44.472;-123.352;2023-03-23T08:07:51;4.53;;;1.20;;
64550;SDS011;50945;44.472;-123.352;2023-03-23T08:10:20;4.40;;;1.20;;
64550;SDS011;50945;44.472;-123.352;2023-03-23T08:12:50;1.77;;;0.95;;
64550;SDS011;50945;44.472;-123.352;2023-03-23T08:15:18;6.55;;;1.05;;
64550;SDS011;50945;44.472;-123.352;2023-03-23T08:17:47;1.02;;;0.90;;
64550;SDS011;50945;44.472;-123.352;2023-03-23T08:20:13;2.60;;;0.93;;
64550;SDS011;50945;44.472;-123.352;2023-03-23T08:22:42;4.80;;;0.85;;
64550;SDS011;50945;44.472;-123.352;2023-03-23T08:25:11;2.78;;;1.10;;
64550;SDS011;50945;44.472;-123.352;2023-03-23T08:27:39;2.63;;;0.80;;
64550;SDS011;50945;44.472;-123.352;2023-03-23T08:30:13;2.83;;;0.82;;
64550;SDS011;50945;44.472;-123.352;2023-03-23T08:32:42;2.20;;;1.00;;
64550;SDS011;50945;44.472;-123.352;2023-03-23T08:35:10;1.63;;;1.15;;
64550;SDS011;50945;44.472;-123.352;2023-03-23T08:37:38;4.07;;;1.10;;
64550;SDS011;50945;44.472;-123.352;2023-03-23T08:40:05;3.97;;;1.23;;
64550;SDS011;50945;44.472;-123.352;2023-03-23T08:42:36;2.17;;;0.98;;
64550;SDS011;50945;44.472;-123.352;2023-03-23T08:45:10;3.47;;;0.90;;
64550;SDS011;50945;44.472;-123.352;2023-03-23T08:47:40;2.50;;;1.10;;
64550;SDS011;50945;44.472;-123.352;2023-03-23T08:50:09;3.17;;;0.80;;
64550;SDS011;50945;44.472;-123.352;2023-03-23T08:52:40;6.00;;;1.02;;
64550;SDS011;50945;44.472;-123.352;2023-03-23T08:55:09;8.30;;;1.98;;
64550;SDS011;50945;44.472;-123.352;2023-03-23T08:57:35;1.33;;;0.85;;
64550;SDS011;50945;44.472;-123.352;2023-03-23T09:00:03;1.58;;;0.73;;
64550;SDS011;50945;44.472;-123.352;2023-03-23T09:02:41;2.33;;;1.02;;
64550;SDS011;50945;44.472;-123.352;2023-03-23T09:05:08;1.30;;;0.98;;
64550;SDS011;50945;44.472;-123.352;2023-03-23T09:07:39;2.72;;;0.85;;
64550;SDS011;50945;44.472;-123.352;2023-03-23T09:10:06;1.77;;;0.88;;
64550;SDS011;50945;44.472;-123.352;2023-03-23T09:12:34;2.40;;;0.85;;
64550;SDS011;50945;44.472;-123.352;2023-03-23T09:15:02;4.00;;;1.10;;
64550;SDS011;50945;44.472;-123.352;2023-03-23T09:17:37;3.45;;;0.95;;
64550;SDS011;50945;44.472;-123.352;2023-03-23T09:20:05;1.38;;;0.55;;
64550;SDS011;50945;44.472;-123.352;2023-03-23T09:22:36;1.40;;;0.82;;
64550;SDS011;50945;44.472;-123.352;2023-03-23T09:25:07;3.22;;;0.85;;
64550;SDS011;50945;44.472;-123.352;2023-03-23T09:27:35;1.13;;;0.85;;
64550;SDS011;50945;44.472;-123.352;2023-03-23T09:30:05;2.65;;;0.93;;
64550;SDS011;50945;44.472;-123.352;2023-03-23T09:32:33;2.47;;;1.27;;
64550;SDS011;50945;44.472;-123.352;2023-03-23T09:35:03;3.80;;;0.98;;
64550;SDS011;50945;44.472;-123.352;2023-03-23T09:37:37;2.17;;;0.90;;
64550;SDS011;50945;44.472;-123.352;2023-03-23T09:40:06;2.08;;;1.10;;
64550;SDS011;50945;44.472;-123.352;2023-03-23T09:50:34;3.35;;;0.90;;
64550;SDS011;50945;44.472;-123.352;2023-03-23T09:53:08;2.80;;;0.82;;
64550;SDS011;50945;44.472;-123.352;2023-03-23T09:55:38;4.90;;;1.20;;
64550;SDS011;50945;44.472;-123.352;2023-03-23T10:06:12;4.20;;;1.08;;
64550;SDS011;50945;44.472;-123.352;2023-03-23T10:08:50;3.75;;;1.35;;
64550;SDS011;50945;44.472;-123.352;2023-03-23T10:11:29;2.50;;;1.10;;
64550;SDS011;50945;44.472;-123.352;2023-03-23T10:22:14;1.58;;;0.95;;
64550;SDS011;50945;44.472;-123.352;2023-03-23T10:24:51;2.42;;;1.30;;
64550;SDS011;50945;44.472;-123.352;2023-03-23T10:27:41;4.07;;;1.08;;
64550;SDS011;50945;44.472;-123.352;2023-03-23T10:30:29;3.03;;;1.05;;
64550;SDS011;50945;44.472;-123.352;2023-03-23T10:35:45;5.45;;;1.40;;
64550;SDS011;50945;44.472;-123.352;2023-03-23T10:38:26;2.00;;;1.40;;
64550;SDS011;50945;44.472;-123.352;2023-03-23T10:41:00;2.63;;;0.90;;
64550;SDS011;50945;44.472;-123.352;2023-03-23T10:43:32;3.83;;;1.33;;
64550;SDS011;50945;44.472;-123.352;2023-03-23T10:46:09;4.78;;;0.88;;
64550;SDS011;50945;44.472;-123.352;2023-03-23T10:48:54;4.05;;;1.02;;
64550;SDS011;50945;44.472;-123.352;2023-03-23T10:51:27;3.35;;;1.30;;
64550;SDS011;50945;44.472;-123.352;2023-03-23T10:54:03;2.95;;;1.10;;
64550;SDS011;50945;44.472;-123.352;2023-03-23T10:56:35;1.63;;;0.70;;
64550;SDS011;50945;44.472;-123.352;2023-03-23T11:01:43;2.40;;;0.90;;
64550;SDS011;50945;44.472;-123.352;2023-03-23T11:04:15;1.60;;;0.95;;
64550;SDS011;50945;44.472;-123.352;2023-03-23T11:06:44;4.78;;;1.02;;
64550;SDS011;50945;44.472;-123.352;2023-03-23T11:09:13;4.85;;;1.13;;
64550;SDS011;50945;44.472;-123.352;2023-03-23T11:11:52;1.95;;;1.15;;
64550;SDS011;50945;44.472;-123.352;2023-03-23T11:16:51;2.88;;;0.95;;
64550;SDS011;50945;44.472;-123.352;2023-03-23T11:19:27;3.45;;;1.17;;
64550;SDS011;50945;44.472;-123.352;2023-03-23T11:24:34;3.28;;;0.98;;
64550;SDS011;50945;44.472;-123.352;2023-03-23T11:27:06;2.00;;;1.17;;
64550;SDS011;50945;44.472;-123.352;2023-03-23T11:29:34;2.83;;;1.25;;
64550;SDS011;50945;44.472;-123.352;2023-03-23T11:32:09;4.45;;;0.95;;
64550;SDS011;50945;44.472;-123.352;2023-03-23T11:34:41;1.27;;;0.50;;
64550;SDS011;50945;44.472;-123.352;2023-03-23T11:37:12;0.85;;;0.82;;
64550;SDS011;50945;44.472;-123.352;2023-03-23T11:39:46;6.57;;;1.52;;
64550;SDS011;50945;44.472;-123.352;2023-03-23T11:42:35;2.85;;;0.70;;
64550;SDS011;50945;44.472;-123.352;2023-03-23T11:45:17;0.82;;;0.82;;
64550;SDS011;50945;44.472;-123.352;2023-03-23T11:47:45;3.05;;;1.05;;
64550;SDS011;50945;44.472;-123.352;2023-03-23T11:50:32;3.92;;;1.88;;
64550;SDS011;50945;44.472;-123.352;2023-03-23T11:56:14;1.63;;;0.55;;
64550;SDS011;50945;44.472;-123.352;2023-03-23T11:58:55;0.55;;;0.55;;
64550;SDS011;50945;44.472;-123.352;2023-03-23T12:04:17;1.65;;;0.60;;
64550;SDS011;50945;44.472;-123.352;2023-03-23T12:09:55;4.20;;;1.00;;
64550;SDS011;50945;44.472;-123.352;2023-03-23T12:12:31;3.50;;;0.95;;
64550;SDS011;50945;44.472;-123.352;2023-03-23T12:23:56;1.55;;;0.82;;
64550;SDS011;50945;44.472;-123.352;2023-03-23T12:26:51;2.10;;;0.88;;
64550;SDS011;50945;44.472;-123.352;2023-03-23T12:35:02;1.95;;;0.80;;
64550;SDS011;50945;44.472;-123.352;2023-03-23T12:46:36;3.83;;;1.30;;
64550;SDS011;50945;44.472;-123.352;2023-03-23T12:51:51;2.58;;;0.80;;
64550;SDS011;50945;44.472;-123.352;2023-03-23T12:54:39;5.68;;;1.27;;
64550;SDS011;50945;44.472;-123.352;2023-03-23T12:57:23;2.10;;;1.00;;
64550;SDS011;50945;44.472;-123.352;2023-03-23T13:00:31;3.15;;;1.08;;
64550;SDS011;50945;44.472;-123.352;2023-03-23T13:05:40;3.80;;;1.08;;
64550;SDS011;50945;44.472;-123.352;2023-03-23T13:08:14;2.28;;;1.20;;
64550;SDS011;50945;44.472;-123.352;2023-03-23T13:10:46;2.00;;;1.05;;
64550;SDS011;50945;44.472;-123.352;2023-03-23T13:13:25;3.90;;;1.30;;
64550;SDS011;50945;44.472;-123.352;2023-03-23T13:24:06;4.32;;;1.05;;
64550;SDS011;50945;44.472;-123.352;2023-03-23T13:26:42;4.97;;;1.38;;
64550;SDS011;50945;44.472;-123.352;2023-03-23T13:29:12;3.50;;;1.17;;
64550;SDS011;50945;44.472;-123.352;2023-03-23T13:31:40;4.45;;;1.50;;
64550;SDS011;50945;44.472;-123.352;2023-03-23T13:36:55;3.55;;;0.98;;
64550;SDS011;50945;44.472;-123.352;2023-03-23T13:44:42;1.10;;;0.82;;
64550;SDS011;50945;44.472;-123.352;2023-03-23T13:49:56;2.13;;;1.05;;
64550;SDS011;50945;44.472;-123.352;2023-03-23T14:00:26;0.93;;;0.90;;
64550;SDS011;50945;44.472;-123.352;2023-03-23T14:03:14;1.75;;;0.88;;
64550;SDS011;50945;44.472;-123.352;2023-03-23T14:10:56;3.70;;;1.90;;
64550;SDS011;50945;44.472;-123.352;2023-03-23T14:16:16;1.63;;;0.70;;
64550;SDS011;50945;44.472;-123.352;2023-03-23T14:18:47;1.08;;;0.60;;
64550;SDS011;50945;44.472;-123.352;2023-03-23T14:21:25;1.38;;;0.85;;
64550;SDS011;50945;44.472;-123.352;2023-03-23T14:24:27;1.00;;;0.60;;
64550;SDS011;50945;44.472;-123.352;2023-03-23T14:26:54;3.53;;;1.33;;
64550;SDS011;50945;44.472;-123.352;2023-03-23T14:29:33;2.25;;;0.80;;
64550;SDS011;50945;44.472;-123.352;2023-03-23T14:32:00;2.25;;;1.15;;
64550;SDS011;50945;44.472;-123.352;2023-03-23T14:34:28;1.60;;;0.85;;
64550;SDS011;50945;44.472;-123.352;2023-03-23T14:36:56;0.85;;;0.75;;
64550;SDS011;50945;44.472;-123.352;2023-03-23T14:39:25;1.08;;;0.90;;
64550;SDS011;50945;44.472;-123.352;2023-03-23T14:42:03;2.67;;;0.95;;
64550;SDS011;50945;44.472;-123.352;2023-03-23T14:44:35;1.85;;;0.95;;
64550;SDS011;50945;44.472;-123.352;2023-03-23T14:47:09;0.80;;;0.80;;
64550;SDS011;50945;44.472;-123.352;2023-03-23T14:49:42;3.47;;;1.08;;
64550;SDS011;50945;44.472;-123.352;2023-03-23T14:52:13;2.50;;;0.85;;
64550;SDS011;50945;44.472;-123.352;2023-03-23T14:54:41;2.22;;;0.68;;
64550;SDS011;50945;44.472;-123.352;2023-03-23T14:57:25;1.15;;;0.95;;
64550;SDS011;50945;44.472;-123.352;2023-03-23T14:59:53;1.08;;;0.88;;
64550;SDS011;50945;44.472;-123.352;2023-03-23T15:02:24;2.72;;;0.90;;
64550;SDS011;50945;44.472;-123.352;2023-03-23T15:05:01;2.58;;;0.90;;
64550;SDS011;50945;44.472;-123.352;2023-03-23T15:07:35;1.73;;;1.25;;
64550;SDS011;50945;44.472;-123.352;2023-03-23T15:10:06;1.77;;;0.82;;
64550;SDS011;50945;44.472;-123.352;2023-03-23T15:12:36;2.88;;;0.82;;
64550;SDS011;50945;44.472;-123.352;2023-03-23T15:15:04;1.83;;;1.10;;
64550;SDS011;50945;44.472;-123.352;2023-03-23T15:17:34;1.52;;;1.30;;
64550;SDS011;50945;44.472;-123.352;2023-03-23T15:20:09;2.03;;;1.10;;
64550;SDS011;50945;44.472;-123.352;2023-03-23T15:22:45;1.65;;;0.98;;
64550;SDS011;50945;44.472;-123.352;2023-03-23T15:27:55;0.98;;;0.98;;
64550;SDS011;50945;44.472;-123.352;2023-03-23T15:30:53;0.90;;;0.90;;
64550;SDS011;50945;44.472;-123.352;2023-03-23T15:33:25;1.10;;;0.60;;
64550;SDS011;50945;44.472;-123.352;2023-03-23T15:35:54;0.70;;;0.70;;
64550;SDS011;50945;44.472;-123.352;2023-03-23T15:38:39;4.85;;;1.00;;
64550;SDS011;50945;44.472;-123.352;2023-03-23T15:41:21;3.40;;;0.90;;
64550;SDS011;50945;44.472;-123.352;2023-03-23T15:43:56;2.50;;;0.70;;
64550;SDS011;50945;44.472;-123.352;2023-03-23T15:46:25;2.38;;;1.38;;
64550;SDS011;50945;44.472;-123.352;2023-03-23T15:51:23;2.13;;;0.65;;
64550;SDS011;50945;44.472;-123.352;2023-03-23T15:53:52;1.30;;;0.57;;
64550;SDS011;50945;44.472;-123.352;2023-03-23T15:56:20;1.60;;;0.82;;
64550;SDS011;50945;44.472;-123.352;2023-03-23T15:58:46;0.98;;;0.80;;
64550;SDS011;50945;44.472;-123.352;2023-03-23T16:01:17;4.13;;;1.10;;
64550;SDS011;50945;44.472;-123.352;2023-03-23T16:04:09;1.75;;;0.90;;
64550;SDS011;50945;44.472;-123.352;2023-03-23T16:06:39;3.38;;;1.08;;
64550;SDS011;50945;44.472;-123.352;2023-03-23T16:09:07;2.85;;;0.77;;
64550;SDS011;50945;44.472;-123.352;2023-03-23T16:11:42;0.80;;;0.80;;
64550;SDS011;50945;44.472;-123.352;2023-03-23T16:14:09;1.10;;;0.63;;
64550;SDS011;50945;44.472;-123.352;2023-03-23T16:16:37;1.10;;;0.30;;
64550;SDS011;50945;44.472;-123.352;2023-03-23T16:19:08;0.50;;;0.50;;
64550;SDS011;50945;44.472;-123.352;2023-03-23T16:21:37;0.43;;;0.22;;
64550;SDS011;50945;44.472;-123.352;2023-03-23T16:24:04;0.25;;;0.25;;
64550;SDS011;50945;44.472;-123.352;2023-03-23T16:26:31;0.20;;;0.10;;
64550;SDS011;50945;44.472;-123.352;2023-03-23T16:28:57;0.57;;;0.40;;
64550;SDS011;50945;44.472;-123.352;2023-03-23T16:31:24;0.63;;;0.57;;
64550;SDS011;50945;44.472;-123.352;2023-03-23T16:33:50;0.40;;;0.30;;
64550;SDS011;50945;44.472;-123.352;2023-03-23T16:36:16;0.82;;;0.40;;
64550;SDS011;50945;44.472;-123.352;2023-03-23T16:38:43;0.90;;;0.40;;
64550;SDS011;50945;44.472;-123.352;2023-03-23T16:41:09;0.93;;;0.55;;
64550;SDS011;50945;44.472;-123.352;2023-03-23T16:43:35;1.42;;;0.60;;
64550;SDS011;50945;44.472;-123.352;2023-03-23T16:46:01;0.52;;;0.50;;
64550;SDS011;50945;44.472;-123.352;2023-03-23T16:48:28;0.52;;;0.52;;
64550;SDS011;50945;44.472;-123.352;2023-03-23T16:50:54;0.93;;;0.45;;
64550;SDS011;50945;44.472;-123.352;2023-03-23T16:53:20;0.57;;;0.57;;
64550;SDS011;50945;44.472;-123.352;2023-03-23T16:55:51;0.38;;;0.38;;
64550;SDS011;50945;44.472;-123.352;2023-03-23T16:58:18;0.40;;;0.40;;